Time;durP1;ratioP1;P1;durP2;ratioP2;P2;SDS_P1;SDS_P2;PMS_P1;PMS_P2;Temp;Humidity;BMP_temperature;BMP_pressure;BME280_temperature;BME280_humidity;BME280_pressure;Samples;Min_cycle;Max_cycle;Signal;HPM_P1;HPM_P2
2024/03/04 00:01:59;;;;;;;1.60;1.30;;;10.30;98.20;;;;;;4882869;29;20556;-80
2024/03/04 00:04:26;;;;;;;1.60;1.10;;;10.30;98.20;;;;;;4889672;29;20467;-80
2024/03/04 00:06:53;;;;;;;1.50;1.10;;;10.30;98.20;;;;;;4880724;29;20486;-81
2024/03/04 00:09:20;;;;;;;1.57;1.20;;;10.30;98.20;;;;;;4887750;29;20485;-80
2024/03/04 00:11:46;;;;;;;1.57;1.00;;;10.30;98.20;;;;;;4879790;29;20492;-81
2024/03/04 00:14:14;;;;;;;1.60;1.10;;;10.30;98.20;;;;;;4886735;29;20926;-80
2024/03/04 00:16:42;;;;;;;1.60;1.37;;;10.30;98.20;;;;;;4880476;29;21061;-81
2024/03/04 00:19:09;;;;;;;1.53;1.10;;;10.30;98.20;;;;;;4889650;29;20495;-80
2024/03/04 00:21:37;;;;;;;1.57;1.20;;;10.30;98.20;;;;;;4877146;29;20569;-81
2024/03/04 00:24:06;;;;;;;1.50;1.20;;;10.30;98.20;;;;;;4888232;29;20470;-80
2024/03/04 00:26:33;;;;;;;1.50;1.10;;;10.30;98.20;;;;;;4872413;29;20943;-81
2024/03/04 00:28:59;;;;;;;1.50;1.00;;;10.30;98.20;;;;;;4890340;29;20470;-80
2024/03/04 00:31:28;;;;;;;1.53;1.17;;;10.20;98.20;;;;;;4875508;29;20473;-80
2024/03/04 00:33:54;;;;;;;1.50;1.10;;;10.30;98.20;;;;;;4890351;29;20462;-81
2024/03/04 00:36:23;;;;;;;1.60;1.10;;;10.30;98.20;;;;;;4876452;29;20493;-81
2024/03/04 00:38:51;;;;;;;1.60;1.20;;;10.30;98.20;;;;;;4896789;29;20474;-80
2024/03/04 00:41:22;;;;;;;1.60;1.20;;;10.30;98.20;;;;;;4874732;29;20482;-82
2024/03/04 00:43:49;;;;;;;1.53;1.10;;;10.30;98.20;;;;;;4892664;29;20495;-80
2024/03/04 00:46:16;;;;;;;1.50;1.10;;;10.30;98.20;;;;;;4872764;29;20481;-81
2024/03/04 00:48:44;;;;;;;1.60;1.10;;;10.30;98.20;;;;;;4892809;29;20466;-83
2024/03/04 00:51:12;;;;;;;1.57;1.13;;;10.30;98.20;;;;;;4874093;29;20497;-81
2024/03/04 00:53:39;;;;;;;1.57;1.10;;;10.20;98.20;;;;;;4893321;29;20977;-83
2024/03/04 00:56:07;;;;;;;1.50;1.10;;;10.20;98.20;;;;;;4871585;29;20573;-82
2024/03/04 00:58:34;;;;;;;1.70;1.50;;;10.20;98.20;;;;;;4891959;29;20861;-81
2024/03/04 01:01:01;;;;;;;1.50;1.10;;;10.20;98.20;;;;;;4871281;29;20478;-81
2024/03/04 01:03:28;;;;;;;1.53;1.10;;;10.20;98.20;;;;;;4900216;29;20886;-81
2024/03/04 01:05:58;;;;;;;1.50;1.10;;;10.20;98.20;;;;;;4871839;29;20520;-82
2024/03/04 01:08:25;;;;;;;1.57;1.10;;;10.20;98.20;;;;;;4892584;29;20474;-83
2024/03/04 01:10:53;;;;;;;1.50;1.10;;;10.20;98.20;;;;;;4871221;29;20547;-81
2024/03/04 01:13:20;;;;;;;1.60;1.30;;;10.20;98.20;;;;;;4893470;29;20498;-82
2024/03/04 01:15:47;;;;;;;1.57;1.20;;;10.10;98.20;;;;;;4874494;29;20474;-81
2024/03/04 01:18:14;;;;;;;1.60;1.20;;;10.10;98.20;;;;;;4899111;29;20929;-82
2024/03/04 01:20:41;;;;;;;1.53;1.10;;;10.10;98.20;;;;;;4881885;29;20470;-82
2024/03/04 01:23:09;;;;;;;1.53;1.10;;;10.10;98.20;;;;;;4868964;29;20486;-82
2024/03/04 01:25:36;;;;;;;1.50;1.10;;;10.10;98.20;;;;;;4880867;29;20470;-83
2024/03/04 01:28:03;;;;;;;1.60;1.10;;;10.10;98.20;;;;;;4892783;29;20489;-83
2024/03/04 01:30:30;;;;;;;1.50;1.10;;;10.10;98.20;;;;;;4880540;29;20549;-83
2024/03/04 01:32:59;;;;;;;1.60;1.50;;;10.10;98.20;;;;;;4886075;29;21009;-84
2024/03/04 01:35:26;;;;;;;1.80;1.47;;;10.10;98.20;;;;;;4879429;29;20561;-81
2024/03/04 01:37:53;;;;;;;1.50;1.10;;;10.10;98.20;;;;;;4868391;29;20506;-81
2024/03/04 01:40:21;;;;;;;1.50;1.20;;;10.10;98.20;;;;;;4880406;29;20471;-82
2024/03/04 01:42:48;;;;;;;1.53;1.10;;;10.10;98.20;;;;;;4869238;29;20498;-83
2024/03/04 01:45:23;;;;;;;1.70;1.40;;;10.10;98.20;;;;;;4876581;29;20545;-81
2024/03/04 01:47:51;;;;;;;1.50;1.10;;;10.10;98.20;;;;;;4878653;29;20524;-81
2024/03/04 01:50:20;;;;;;;1.53;1.10;;;10.10;98.20;;;;;;4878238;29;20547;-82
2024/03/04 01:52:49;;;;;;;1.60;1.10;;;10.00;98.20;;;;;;4885067;29;20481;-82
2024/03/04 01:55:16;;;;;;;1.53;1.20;;;10.00;98.20;;;;;;4878531;29;20494;-83
2024/03/04 01:57:44;;;;;;;1.50;1.10;;;10.00;98.20;;;;;;4891574;29;20581;-81
2024/03/04 02:00:12;;;;;;;1.53;1.10;;;9.90;98.20;;;;;;4880132;29;20478;-82
2024/03/04 02:02:41;;;;;;;1.50;1.10;;;9.90;98.20;;;;;;4884762;29;21064;-82
2024/03/04 02:05:09;;;;;;;1.57;1.10;;;9.90;98.20;;;;;;4880454;29;20498;-81
2024/03/04 02:07:37;;;;;;;1.50;1.13;;;9.90;98.20;;;;;;4879799;29;20500;-83
2024/03/04 02:10:06;;;;;;;1.60;1.10;;;9.80;98.20;;;;;;4880374;29;20474;-81
2024/03/04 02:12:33;;;;;;;1.60;1.50;;;9.80;98.20;;;;;;4884259;29;20589;-80
2024/03/04 02:15:03;;;;;;;1.50;1.10;;;9.80;98.20;;;;;;4880915;29;20508;-82
2024/03/04 02:17:31;;;;;;;1.50;1.10;;;9.80;98.20;;;;;;4882682;29;20493;-83
2024/03/04 02:20:03;;;;;;;1.53;1.20;;;9.80;98.20;;;;;;4883367;29;20522;-82
2024/03/04 02:22:31;;;;;;;1.50;1.10;;;9.80;98.20;;;;;;4867583;29;20622;-82
2024/03/04 02:24:58;;;;;;;1.50;1.10;;;9.90;98.20;;;;;;4879084;29;20545;-81
2024/03/04 02:27:26;;;;;;;1.60;1.20;;;9.90;98.20;;;;;;4884851;29;20505;-81
2024/03/04 02:29:53;;;;;;;1.50;1.10;;;9.90;98.20;;;;;;4885770;29;20474;-81
2024/03/04 02:32:20;;;;;;;1.97;1.70;;;9.90;98.20;;;;;;4884151;29;20477;-81
2024/03/04 02:34:49;;;;;;;1.53;1.10;;;9.90;98.20;;;;;;4886916;29;20828;-82
2024/03/04 02:37:16;;;;;;;1.50;1.10;;;9.90;98.20;;;;;;4885689;29;20488;-82
2024/03/04 02:39:44;;;;;;;2.73;2.10;;;9.90;98.20;;;;;;4887428;29;20474;-83
2024/03/04 02:42:11;;;;;;;1.50;1.10;;;9.90;98.20;;;;;;4883971;29;20481;-80
2024/03/04 02:44:37;;;;;;;1.50;1.10;;;9.90;98.20;;;;;;4888915;29;20490;-82
2024/03/04 02:47:04;;;;;;;1.53;1.10;;;9.90;98.20;;;;;;4882333;29;20494;-81
2024/03/04 02:49:34;;;;;;;1.50;1.10;;;9.90;98.20;;;;;;4882066;29;20474;-82
2024/03/04 02:52:01;;;;;;;1.57;1.20;;;9.80;98.20;;;;;;4868318;29;20479;-85
2024/03/04 02:54:28;;;;;;;1.50;1.10;;;9.80;98.20;;;;;;4878301;29;20470;-81
2024/03/04 02:56:56;;;;;;;1.60;1.10;;;9.90;98.20;;;;;;4869822;29;21072;-77
2024/03/04 02:59:24;;;;;;;1.60;1.30;;;9.90;98.20;;;;;;4878037;29;20911;-79
2024/03/04 03:01:50;;;;;;;1.50;1.10;;;9.80;98.20;;;;;;4873984;29;20704;-79
2024/03/04 03:04:17;;;;;;;1.60;1.20;;;9.80;98.20;;;;;;4890755;29;20978;-80
2024/03/04 03:06:45;;;;;;;1.50;1.10;;;9.80;98.20;;;;;;4883326;29;20528;-79
2024/03/04 03:09:12;;;;;;;1.57;1.10;;;9.80;98.20;;;;;;4889831;29;20478;-79
2024/03/04 03:11:40;;;;;;;1.53;1.10;;;9.70;98.20;;;;;;4868209;29;20489;-79
2024/03/04 03:14:08;;;;;;;1.60;1.10;;;9.70;98.20;;;;;;4879546;29;20561;-79
2024/03/04 03:16:35;;;;;;;1.60;1.20;;;9.70;98.20;;;;;;4875452;29;20906;-80
2024/03/04 03:19:02;;;;;;;1.57;1.10;;;9.80;98.20;;;;;;4897175;23;20495;-84
2024/03/04 03:21:29;;;;;;;1.53;1.10;;;9.70;98.20;;;;;;4883610;29;20480;-83
2024/03/04 03:23:56;;;;;;;1.50;1.10;;;9.70;98.20;;;;;;4900994;29;20483;-84
2024/03/04 03:26:25;;;;;;;1.60;1.20;;;9.70;98.20;;;;;;4873941;29;20482;-82
2024/03/04 03:28:52;;;;;;;1.53;1.10;;;9.70;98.20;;;;;;4869095;29;20693;-85
2024/03/04 03:31:22;;;;;;;1.50;1.17;;;9.70;98.20;;;;;;4861766;29;20517;-84
2024/03/04 03:33:49;;;;;;;1.60;1.20;;;9.70;98.20;;;;;;4878296;29;20471;-83
2024/03/04 03:36:16;;;;;;;1.57;1.20;;;9.70;98.20;;;;;;4861358;29;20502;-84
2024/03/04 03:38:43;;;;;;;1.57;1.20;;;9.70;98.20;;;;;;4880884;29;20560;-86
2024/03/04 03:41:13;;;;;;;1.60;1.23;;;9.70;98.20;;;;;;4856742;29;20551;-83
2024/03/04 03:43:42;;;;;;;1.60;1.10;;;9.60;98.20;;;;;;4864403;29;20497;-83
2024/03/04 03:49:56;;;;;;;1.60;1.20;;;9.60;98.20;;;;;;4790803;29;20478;-86
2024/03/04 03:52:41;;;;;;;1.53;1.10;;;9.60;98.20;;;;;;4790300;29;20479;-84
2024/03/04 03:55:09;;;;;;;1.57;1.10;;;9.60;98.20;;;;;;4806270;29;20480;-82
2024/03/04 03:57:36;;;;;;;1.60;1.20;;;9.60;98.20;;;;;;4799733;29;20508;-83
2024/03/04 04:00:04;;;;;;;1.60;1.10;;;9.60;98.20;;;;;;4865571;29;20506;-83
2024/03/04 04:02:31;;;;;;;1.50;1.10;;;9.60;98.20;;;;;;4871017;29;20482;-83
2024/03/04 04:05:02;;;;;;;1.60;1.20;;;9.60;98.20;;;;;;4863774;29;20899;-83
2024/03/04 04:10:15;;;;;;;1.53;1.10;;;9.60;98.20;;;;;;4847729;29;20467;-82
2024/03/04 04:12:42;;;;;;;1.60;1.20;;;9.60;98.20;;;;;;4863457;29;20493;-84
2024/03/04 04:18:36;;;;;;;1.60;1.10;;;9.60;98.20;;;;;;4850307;29;20483;-83
2024/03/04 04:24:57;;;;;;;1.60;1.10;;;9.60;98.20;;;;;;4786862;29;20469;-83
2024/03/04 04:33:30;;;;;;;1.50;1.10;;;9.60;98.20;;;;;;4852914;29;20584;-83
2024/03/04 04:35:58;;;;;;;1.60;1.20;;;9.60;98.20;;;;;;4856578;29;20744;-82
2024/03/04 04:38:25;;;;;;;1.60;1.20;;;9.60;98.20;;;;;;4875979;29;20544;-84
2024/03/04 04:40:53;;;;;;;1.53;1.20;;;9.50;98.20;;;;;;4856460;29;20476;-84
2024/03/04 04:43:20;;;;;;;1.53;1.20;;;9.50;98.20;;;;;;4877382;29;20483;-82
2024/03/04 04:45:49;;;;;;;1.50;1.10;;;9.50;98.20;;;;;;4853237;29;20482;-81
2024/03/04 04:48:15;;;;;;;1.53;1.10;;;9.50;98.20;;;;;;4878228;29;20491;-83
2024/03/04 04:50:42;;;;;;;1.53;1.20;;;9.40;98.20;;;;;;4862810;29;20467;-84
2024/03/04 04:53:10;;;;;;;1.57;1.20;;;9.40;98.20;;;;;;4870089;29;20484;-83
2024/03/04 04:55:37;;;;;;;1.53;1.10;;;9.40;98.20;;;;;;4860778;29;20492;-82
2024/03/04 04:58:31;;;;;;;1.60;1.20;;;9.40;98.20;;;;;;4853552;29;20483;-84
2024/03/04 05:04:28;;;;;;;1.60;1.27;;;9.30;98.20;;;;;;4832451;29;20491;-81
2024/03/04 05:06:54;;;;;;;1.50;1.20;;;9.40;98.20;;;;;;4855223;29;20484;-81
2024/03/04 05:09:22;;;;;;;1.53;1.20;;;9.30;98.20;;;;;;4858103;29;21172;-81
2024/03/04 05:14:56;;;;;;;1.50;1.10;;;9.30;98.20;;;;;;4858244;29;20808;-81
2024/03/04 05:17:26;;;;;;;1.50;1.10;;;9.30;98.20;;;;;;4858453;29;20518;-84
2024/03/04 05:19:53;;;;;;;1.60;1.23;;;9.30;98.20;;;;;;4862063;29;20467;-85
2024/03/04 05:22:36;;;;;;;1.50;1.10;;;9.30;98.20;;;;;;4863189;29;20529;-84
2024/03/04 05:25:12;;;;;;;1.53;1.10;;;9.20;98.20;;;;;;4855450;29;20529;-83
2024/03/04 05:27:46;;;;;;;1.57;1.20;;;9.20;98.20;;;;;;4867458;29;20481;-85
2024/03/04 05:30:44;;;;;;;1.50;1.10;;;9.20;98.20;;;;;;4856578;29;20495;-85
2024/03/04 05:33:42;;;;;;;1.60;1.20;;;9.20;98.20;;;;;;4814377;29;20496;-83
2024/03/04 05:36:17;;;;;;;1.53;1.10;;;9.20;98.20;;;;;;4826547;29;21121;-83
2024/03/04 05:38:43;;;;;;;1.53;1.20;;;9.20;98.20;;;;;;4857190;29;20490;-85
2024/03/04 05:41:10;;;;;;;1.50;1.10;;;9.20;98.20;;;;;;4855447;29;20502;-82
2024/03/04 05:43:41;;;;;;;1.53;1.10;;;9.20;98.20;;;;;;4870659;29;20483;-84
2024/03/04 05:46:14;;;;;;;1.50;1.10;;;9.20;98.20;;;;;;4848780;29;20478;-83
2024/03/04 05:48:59;;;;;;;1.60;1.30;;;9.10;98.20;;;;;;4872596;29;20594;-86
2024/03/04 05:55:26;;;;;;;1.57;1.10;;;9.20;98.20;;;;;;4837771;29;20460;-83
2024/03/04 05:57:54;;;;;;;1.57;1.20;;;9.20;98.20;;;;;;4863080;29;20494;-85
2024/03/04 06:00:52;;;;;;;1.50;1.20;;;9.20;98.20;;;;;;4862087;29;20463;-84
2024/03/04 06:03:23;;;;;;;1.50;1.20;;;9.20;98.20;;;;;;4844242;29;20502;-83
2024/03/04 06:05:50;;;;;;;1.60;1.20;;;9.20;98.20;;;;;;4843955;29;20483;-82
2024/03/04 06:08:17;;;;;;;1.50;1.10;;;9.20;98.20;;;;;;4871881;29;20539;-82
2024/03/04 06:10:47;;;;;;;1.53;1.20;;;9.20;98.20;;;;;;4854746;29;20479;-82
2024/03/04 06:13:22;;;;;;;1.53;1.10;;;9.20;98.20;;;;;;4848093;29;20479;-82
2024/03/04 06:15:49;;;;;;;1.60;1.20;;;9.20;98.20;;;;;;4846862;29;20463;-82
2024/03/04 06:19:02;;;;;;;1.50;1.10;;;9.10;98.20;;;;;;4861234;29;20509;-83
2024/03/04 06:21:36;;;;;;;1.50;1.20;;;9.10;98.20;;;;;;4849095;29;20498;-82
2024/03/04 06:24:06;;;;;;;1.50;1.10;;;9.10;98.20;;;;;;4863723;29;20606;-82
2024/03/04 06:26:40;;;;;;;1.60;1.20;;;9.10;98.20;;;;;;4852782;29;20717;-82
2024/03/04 06:29:12;;;;;;;1.60;1.20;;;9.10;98.20;;;;;;4865936;29;20484;-83
2024/03/04 06:32:14;;;;;;;1.50;1.10;;;9.10;98.20;;;;;;4858583;29;20495;-85
2024/03/04 06:38:57;;;;;;;1.53;1.10;;;9.10;98.20;;;;;;4812164;29;20583;-82
2024/03/04 06:57:54;;;;;;;1.53;1.10;;;9.10;98.20;;;;;;4758932;29;20523;-85
2024/03/04 07:03:34;;;;;;;1.60;1.20;;;9.10;98.20;;;;;;4802233;29;20940;-83
2024/03/04 07:06:01;;;;;;;1.50;1.10;;;9.10;98.20;;;;;;4848512;29;20553;-83
2024/03/04 07:08:28;;;;;;;1.50;1.10;;;9.10;98.20;;;;;;4874493;29;20575;-85
2024/03/04 07:11:28;;;;;;;1.50;1.10;;;9.10;98.20;;;;;;4860267;29;20467;-83
2024/03/04 07:13:55;;;;;;;1.53;1.20;;;9.10;98.20;;;;;;4869345;29;20475;-84
2024/03/04 07:16:22;;;;;;;1.50;1.10;;;9.10;98.20;;;;;;4858632;29;20489;-86
2024/03/04 07:19:04;;;;;;;1.60;1.20;;;9.20;98.20;;;;;;4871797;29;20499;-83
2024/03/04 07:21:31;;;;;;;1.50;1.10;;;9.20;98.20;;;;;;4856371;29;20529;-84
2024/03/04 07:23:58;;;;;;;1.53;1.20;;;9.20;98.20;;;;;;4870089;29;20517;-82
2024/03/04 07:26:27;;;;;;;1.53;1.10;;;9.10;98.20;;;;;;4855497;29;21100;-83
2024/03/04 07:28:53;;;;;;;1.50;1.20;;;9.10;98.20;;;;;;4867999;29;20511;-84
2024/03/04 07:31:20;;;;;;;1.50;1.20;;;9.10;98.20;;;;;;4857371;29;20485;-83
2024/03/04 07:33:47;;;;;;;1.60;1.30;;;9.10;98.20;;;;;;4872805;29;20463;-84
2024/03/04 07:36:15;;;;;;;1.53;1.10;;;9.10;98.20;;;;;;4851752;29;20619;-82
2024/03/04 07:38:45;;;;;;;6.03;3.27;;;9.10;98.20;;;;;;4874581;29;20499;-83
2024/03/04 07:41:11;;;;;;;1.60;1.27;;;9.10;98.20;;;;;;4851903;29;20494;-85
2024/03/04 07:43:42;;;;;;;1.53;1.10;;;9.10;98.20;;;;;;4874923;29;21469;-83
2024/03/04 07:46:09;;;;;;;1.60;1.17;;;9.10;98.20;;;;;;4854688;29;20486;-83
2024/03/04 07:48:36;;;;;;;1.53;1.10;;;9.20;98.20;;;;;;4870870;29;20848;-82
2024/03/04 07:51:05;;;;;;;1.60;1.20;;;9.10;98.20;;;;;;4849694;29;20543;-82
2024/03/04 07:53:32;;;;;;;1.50;1.07;;;9.20;98.20;;;;;;4871795;29;20474;-83
2024/03/04 07:56:01;;;;;;;1.53;1.10;;;9.20;98.20;;;;;;4846358;29;20688;-82
2024/03/04 07:58:28;;;;;;;1.53;1.20;;;9.20;98.20;;;;;;4855266;29;20946;-83
2024/03/04 08:01:14;;;;;;;1.60;1.20;;;9.20;98.20;;;;;;4847311;29;20500;-82
2024/03/04 08:03:41;;;;;;;1.60;1.30;;;9.20;98.20;;;;;;4867557;29;21032;-82
2024/03/04 08:06:08;;;;;;;1.60;1.30;;;9.20;98.20;;;;;;4850614;29;20537;-83
2024/03/04 08:08:38;;;;;;;1.53;1.10;;;9.20;98.20;;;;;;4875547;29;20483;-84
2024/03/04 08:11:08;;;;;;;1.57;1.10;;;9.20;98.20;;;;;;4850891;29;20456;-83
2024/03/04 08:13:36;;;;;;;1.50;1.10;;;9.20;98.20;;;;;;4870917;29;20486;-83
2024/03/04 08:16:03;;;;;;;1.50;1.20;;;9.20;98.20;;;;;;4853587;29;20471;-84
2024/03/04 08:18:31;;;;;;;1.53;1.10;;;9.20;98.20;;;;;;4871667;29;20509;-83
2024/03/04 08:20:58;;;;;;;1.70;1.60;;;9.20;98.20;;;;;;4851363;29;20476;-83
2024/03/04 08:24:01;;;;;;;1.50;1.10;;;9.30;98.20;;;;;;4875716;29;20491;-82
2024/03/04 08:29:45;;;;;;;1.60;1.20;;;9.30;98.20;;;;;;4842310;29;20573;-83
2024/03/04 08:32:31;;;;;;;1.57;1.10;;;9.30;98.20;;;;;;4860072;29;20479;-83
2024/03/04 08:34:59;;;;;;;1.53;1.20;;;9.40;98.20;;;;;;4858078;29;20467;-83
2024/03/04 08:37:26;;;;;;;1.60;1.20;;;9.40;98.20;;;;;;4864260;29;20516;-83
2024/03/04 08:39:54;;;;;;;1.50;1.10;;;9.40;98.20;;;;;;4862322;29;20477;-84
2024/03/04 08:42:21;;;;;;;1.60;1.20;;;9.40;98.20;;;;;;4865808;29;20960;-87
2024/03/04 08:44:48;;;;;;;1.57;1.20;;;9.40;98.20;;;;;;4862083;29;20564;-84
2024/03/04 08:47:27;;;;;;;1.53;1.10;;;9.40;98.20;;;;;;4863501;29;20547;-84
2024/03/04 08:49:55;;;;;;;1.50;1.10;;;9.50;98.20;;;;;;4864500;29;20463;-84
2024/03/04 08:52:25;;;;;;;1.53;1.10;;;9.50;98.20;;;;;;4853819;29;20569;-84
2024/03/04 08:54:55;;;;;;;1.60;1.20;;;9.50;98.20;;;;;;4865155;29;22152;-83
2024/03/04 08:57:22;;;;;;;1.50;1.10;;;9.60;98.20;;;;;;4861081;29;20561;-83
2024/03/04 08:59:49;;;;;;;1.50;1.10;;;9.50;98.20;;;;;;4863970;29;20475;-84
2024/03/04 09:02:26;;;;;;;;;;;;;;;;;;;;;
2024/03/04 09:04:55;;;;;;;1.57;1.10;;;9.60;98.20;;;;;;4860757;29;20632;-83
2024/03/04 09:07:30;;;;;;;1.57;1.20;;;9.60;98.20;;;;;;4860391;29;20523;-85
2024/03/04 09:09:59;;;;;;;1.50;1.10;;;9.70;98.20;;;;;;4858640;29;21246;-83
2024/03/04 09:12:30;;;;;;;1.50;1.07;;;9.80;98.20;;;;;;4861687;29;20797;-81
2024/03/04 09:15:27;;;;;;;1.50;1.00;;;9.90;98.20;;;;;;4859876;29;20455;-83
2024/03/04 09:17:54;;;;;;;1.53;1.10;;;10.00;98.20;;;;;;4818290;29;20499;-82
2024/03/04 09:23:27;;;;;;;1.50;1.10;;;10.10;98.20;;;;;;4814709;29;20475;-83
2024/03/04 09:25:55;;;;;;;1.50;1.00;;;10.20;98.20;;;;;;4821931;29;20563;-83
2024/03/04 09:28:26;;;;;;;1.60;1.20;;;10.30;98.20;;;;;;4869749;29;20487;-83
2024/03/04 09:30:59;;;;;;;1.57;1.10;;;10.40;98.20;;;;;;4847467;29;20468;-81
2024/03/04 09:33:31;;;;;;;1.60;1.10;;;10.50;98.20;;;;;;4873597;29;20463;-84
2024/03/04 09:36:00;;;;;;;1.60;1.10;;;10.60;98.20;;;;;;4846110;29;20544;-81
2024/03/04 09:38:28;;;;;;;1.50;1.10;;;10.60;98.20;;;;;;4872687;29;20538;-79
2024/03/04 09:40:56;;;;;;;1.60;1.13;;;10.70;98.20;;;;;;4848582;29;20621;-83
2024/03/04 09:43:27;;;;;;;1.60;1.20;;;10.70;98.20;;;;;;4872610;29;20467;-81
2024/03/04 09:45:54;;;;;;;1.53;1.10;;;10.70;98.20;;;;;;4843733;29;21093;-82
2024/03/04 09:48:27;;;;;;;1.60;1.10;;;10.70;98.20;;;;;;4867705;29;20506;-83
2024/03/04 09:50:56;;;;;;;1.53;1.10;;;10.70;98.20;;;;;;4848392;29;20483;-82
2024/03/04 09:53:27;;;;;;;1.60;1.10;;;10.70;98.20;;;;;;4876357;29;20463;-82
2024/03/04 09:55:55;;;;;;;1.57;1.10;;;10.70;98.20;;;;;;4847428;29;21027;-84
2024/03/04 09:58:36;;;;;;;1.57;1.10;;;10.60;98.20;;;;;;4855056;29;20483;-82
2024/03/04 10:01:04;;;;;;;1.53;1.10;;;10.70;98.20;;;;;;4847953;29;20475;-82
2024/03/04 10:03:31;;;;;;;1.57;1.10;;;10.70;98.20;;;;;;4869614;29;20463;-82
2024/03/04 10:05:58;;;;;;;1.60;1.17;;;10.70;98.20;;;;;;4851689;29;20554;-84
2024/03/04 10:08:33;;;;;;;1.57;1.10;;;10.70;98.20;;;;;;4870622;29;20491;-81
2024/03/04 10:11:01;;;;;;;1.50;1.10;;;10.70;98.20;;;;;;4848124;29;20482;-83
2024/03/04 10:13:38;;;;;;;1.50;1.10;;;10.60;98.20;;;;;;4873184;29;20463;-82
2024/03/04 10:16:09;;;;;;;1.50;1.10;;;10.50;98.20;;;;;;4852577;29;20455;-83
2024/03/04 10:18:40;;;;;;;1.57;1.10;;;10.50;98.20;;;;;;4872870;29;20491;-82
2024/03/04 10:21:07;;;;;;;1.50;1.00;;;10.50;98.20;;;;;;4855268;29;20482;-81
2024/03/04 10:23:35;;;;;;;1.53;1.00;;;10.50;98.20;;;;;;4873528;29;20468;-82
2024/03/04 10:26:12;;;;;;;1.53;1.10;;;10.50;98.20;;;;;;4849558;29;20514;-81
2024/03/04 10:28:48;;;;;;;1.60;1.10;;;10.40;98.20;;;;;;4871123;29;20923;-82
2024/03/04 10:31:18;;;;;;;1.53;1.10;;;10.40;98.20;;;;;;4852012;29;20502;-80
2024/03/04 10:33:45;;;;;;;1.53;1.10;;;10.40;98.20;;;;;;4871247;29;20582;-83
2024/03/04 10:36:17;;;;;;;1.60;1.10;;;10.30;98.20;;;;;;4845151;29;20482;-85
2024/03/04 10:38:46;;;;;;;1.60;1.10;;;10.30;98.20;;;;;;4871090;29;20484;-83
2024/03/04 10:41:23;;;;;;;1.50;1.10;;;10.30;98.20;;;;;;4854607;29;20561;-82
2024/03/04 10:43:51;;;;;;;1.57;1.10;;;10.30;98.20;;;;;;4875070;29;20494;-83
2024/03/04 10:46:20;;;;;;;1.50;1.10;;;10.40;98.20;;;;;;4853305;29;20738;-82
2024/03/04 10:48:50;;;;;;;1.57;1.20;;;10.40;98.20;;;;;;4873762;29;20515;-84
2024/03/04 10:51:17;;;;;;;1.60;1.20;;;10.40;98.20;;;;;;4851992;29;20957;-82
2024/03/04 10:53:45;;;;;;;1.50;1.10;;;10.40;98.20;;;;;;4867736;29;21011;-82
2024/03/04 10:56:14;;;;;;;1.60;1.30;;;10.40;98.20;;;;;;4853367;29;20483;-84
2024/03/04 11:01:55;;;;;;;1.57;1.10;;;10.40;98.20;;;;;;4855470;29;20751;-82
2024/03/04 11:04:25;;;;;;;1.50;1.10;;;10.40;98.20;;;;;;4867670;29;20549;-81
2024/03/04 11:06:53;;;;;;;1.60;1.20;;;10.40;98.20;;;;;;4861857;29;20494;-81
2024/03/04 11:09:19;;;;;;;1.60;1.10;;;10.40;98.20;;;;;;4868546;29;20494;-81
2024/03/04 11:11:58;;;;;;;1.50;1.00;;;10.40;98.20;;;;;;4857837;29;20645;-83
2024/03/04 11:14:33;;;;;;;1.53;1.10;;;10.40;98.20;;;;;;4865935;29;20528;-83
2024/03/04 11:17:09;;;;;;;1.60;1.40;;;10.40;98.20;;;;;;4861569;29;20504;-82
2024/03/04 11:19:44;;;;;;;1.50;1.10;;;10.40;98.20;;;;;;4864086;29;20542;-84
2024/03/04 11:22:17;;;;;;;1.50;1.00;;;10.40;98.20;;;;;;4860953;29;20524;-82
2024/03/04 11:24:57;;;;;;;1.53;1.10;;;10.40;98.20;;;;;;4861684;29;20585;-82
2024/03/04 11:27:49;;;;;;;1.50;1.00;;;10.40;98.20;;;;;;4858352;29;20497;-83
2024/03/04 11:30:34;;;;;;;1.60;1.10;;;10.50;98.20;;;;;;4843552;29;20495;-82
2024/03/04 11:33:45;;;;;;;1.50;1.10;;;10.50;98.20;;;;;;4864232;29;20513;-83
2024/03/04 11:36:15;;;;;;;1.57;1.10;;;10.60;98.20;;;;;;4845601;29;20515;-83
2024/03/04 11:38:47;;;;;;;1.53;1.00;;;10.70;98.20;;;;;;4869986;29;20487;-82
2024/03/04 11:41:38;;;;;;;1.57;1.10;;;10.70;98.20;;;;;;4853174;29;20498;-81
2024/03/04 11:44:12;;;;;;;1.57;1.10;;;10.70;98.20;;;;;;4867629;29;20482;-81
2024/03/04 11:46:41;;;;;;;2.27;1.67;;;10.70;98.20;;;;;;4854958;29;20832;-83
2024/03/04 11:49:29;;;;;;;1.60;1.10;;;10.70;98.20;;;;;;4868851;29;20863;-81
2024/03/04 11:52:04;;;;;;;1.53;1.10;;;10.80;98.20;;;;;;4858674;29;20575;-83
2024/03/04 11:54:39;;;;;;;1.50;1.00;;;10.80;98.20;;;;;;4867602;29;20477;-81
2024/03/04 11:57:08;;;;;;;1.50;1.00;;;10.90;98.20;;;;;;4861547;29;20501;-83
2024/03/04 11:59:39;;;;;;;1.50;1.00;;;10.90;98.20;;;;;;4866330;29;20977;-82
2024/03/04 12:02:09;;;;;;;1.57;1.10;;;10.90;98.20;;;;;;4853052;29;20531;-80
2024/03/04 12:04:36;;;;;;;1.53;1.00;;;10.90;98.20;;;;;;4863713;29;20507;-81
2024/03/04 12:07:04;;;;;;;1.50;1.00;;;10.90;98.20;;;;;;4858669;29;20490;-83
2024/03/04 12:09:33;;;;;;;1.57;1.10;;;10.90;98.20;;;;;;4865876;29;20495;-82
2024/03/04 12:12:01;;;;;;;1.50;1.10;;;10.90;98.20;;;;;;4859639;29;20623;-83
2024/03/04 12:14:27;;;;;;;1.50;1.13;;;10.90;98.20;;;;;;4862194;29;20484;-82
2024/03/04 12:16:54;;;;;;;1.60;1.10;;;10.90;98.20;;;;;;4860297;29;20484;-82
2024/03/04 12:19:23;;;;;;;1.50;1.00;;;10.90;98.20;;;;;;4866421;29;20515;-83
2024/03/04 12:21:50;;;;;;;1.60;1.20;;;11.00;98.20;;;;;;4857888;29;20581;-83
2024/03/04 12:24:18;;;;;;;1.60;1.10;;;11.00;98.20;;;;;;4864926;29;20465;-85
2024/03/04 12:26:49;;;;;;;1.57;1.10;;;11.00;98.20;;;;;;4854213;29;20521;-82
2024/03/04 12:29:24;;;;;;;1.60;1.10;;;11.10;98.20;;;;;;4865853;29;20939;-84
2024/03/04 12:31:53;;;;;;;1.57;1.10;;;11.10;98.20;;;;;;4859950;29;20489;-83
2024/03/04 12:34:22;;;;;;;1.50;1.00;;;11.10;98.20;;;;;;4862894;29;20474;-83
2024/03/04 12:36:51;;;;;;;1.57;1.00;;;11.20;98.20;;;;;;4856603;29;20581;-83
2024/03/04 12:39:36;;;;;;;1.50;1.10;;;11.20;98.20;;;;;;4865256;29;20550;-83
2024/03/04 12:42:03;;;;;;;1.50;1.00;;;11.30;98.20;;;;;;4861380;29;20501;-84
2024/03/04 12:44:30;;;;;;;1.60;1.10;;;11.30;98.20;;;;;;4860052;29;20551;-84
2024/03/04 12:46:57;;;;;;;1.50;1.00;;;11.30;98.20;;;;;;4856517;29;20514;-83
2024/03/04 12:49:25;;;;;;;1.50;1.00;;;11.30;98.20;;;;;;4865100;29;21009;-83
2024/03/04 12:51:52;;;;;;;1.50;1.10;;;11.40;98.20;;;;;;4860310;29;20905;-83
2024/03/04 12:54:26;;;;;;;1.50;1.00;;;11.40;98.20;;;;;;4862692;29;20468;-82
2024/03/04 12:56:53;;;;;;;1.50;1.10;;;11.40;98.20;;;;;;4857929;29;20482;-82
2024/03/04 12:59:21;;;;;;;1.50;1.00;;;11.40;98.20;;;;;;4867651;29;20621;-82
2024/03/04 13:01:48;;;;;;;1.53;1.00;;;11.40;98.20;;;;;;4854468;29;20482;-82
2024/03/04 13:04:15;;;;;;;1.50;1.00;;;11.50;98.20;;;;;;4863984;29;20946;-81
2024/03/04 13:06:45;;;;;;;1.50;1.00;;;11.60;98.20;;;;;;4855659;29;21094;-83
2024/03/04 13:09:16;;;;;;;1.53;1.00;;;11.60;98.20;;;;;;4865541;29;20487;-83
2024/03/04 13:11:43;;;;;;;1.50;1.10;;;11.50;98.20;;;;;;4855938;29;20520;-82
2024/03/04 13:14:11;;;;;;;1.50;1.00;;;11.60;98.20;;;;;;4860735;29;20472;-82
2024/03/04 13:16:38;;;;;;;1.50;1.00;;;11.60;98.20;;;;;;4855052;29;20581;-82
2024/03/04 13:19:05;;;;;;;1.60;1.10;;;11.70;98.20;;;;;;4860157;29;20489;-81
2024/03/04 13:21:32;;;;;;;1.57;1.00;;;11.80;98.20;;;;;;4853519;29;21064;-82
2024/03/04 13:24:02;;;;;;;1.60;1.00;;;11.80;98.20;;;;;;4867846;29;20594;-83
2024/03/04 13:26:29;;;;;;;1.57;1.00;;;12.00;98.20;;;;;;4855353;29;20486;-82
2024/03/04 13:28:56;;;;;;;1.53;1.00;;;12.10;98.20;;;;;;4868257;29;20489;-85
2024/03/04 13:31:24;;;;;;;1.50;1.00;;;12.30;98.20;;;;;;4855010;29;21029;-83
2024/03/04 13:33:51;;;;;;;1.50;1.00;;;12.50;98.20;;;;;;4868242;29;20463;-80
2024/03/04 13:36:24;;;;;;;1.50;1.00;;;12.70;98.20;;;;;;4848967;29;20519;-80
2024/03/04 13:38:53;;;;;;;1.50;1.00;;;12.90;98.20;;;;;;4869486;29;20578;-84
2024/03/04 13:41:22;;;;;;;1.60;1.10;;;12.90;98.20;;;;;;4856462;29;20510;-82
2024/03/04 13:43:48;;;;;;;1.53;1.00;;;13.00;98.20;;;;;;4870053;29;20481;-82
2024/03/04 13:46:15;;;;;;;1.53;1.00;;;13.10;98.20;;;;;;4853458;29;20581;-82
2024/03/04 13:48:42;;;;;;;1.57;1.00;;;13.20;98.20;;;;;;4871837;29;20569;-83
2024/03/04 13:51:09;;;;;;;1.50;0.97;;;13.30;98.20;;;;;;4854937;29;20490;-82
2024/03/04 13:53:37;;;;;;;1.50;1.00;;;13.30;98.20;;;;;;4873466;29;20463;-83
2024/03/04 13:56:05;;;;;;;1.57;1.00;;;13.30;98.20;;;;;;4846252;29;20500;-83
2024/03/04 13:58:33;;;;;;;1.50;1.00;;;13.30;98.20;;;;;;4867814;29;20568;-82
2024/03/04 14:01:00;;;;;;;1.50;1.00;;;13.30;98.20;;;;;;4845139;29;20468;-82
2024/03/04 14:03:27;;;;;;;1.50;1.00;;;13.30;98.20;;;;;;4871414;29;20496;-83
2024/03/04 14:05:54;;;;;;;1.53;1.00;;;13.40;98.20;;;;;;4849999;29;20493;-81
2024/03/04 14:08:21;;;;;;;1.50;1.00;;;13.50;98.20;;;;;;4873948;29;20491;-82
2024/03/04 14:10:48;;;;;;;1.50;1.00;;;13.50;98.20;;;;;;4851335;29;20572;-84
2024/03/04 14:13:15;;;;;;;1.53;1.00;;;13.60;98.20;;;;;;4875525;29;20487;-82